Terminal Aerodrome Forecast
Issued by NWS Wilmington, OH

Home | Current Version | Previous Version | Text Only | Print | Product List | Glossary On
Versions: 1 2 3 4 5 6 7 8 9 10 11 12 13 14 15 16 17 18 19 20 21 22 23 24 25 26
706
FTUS41 KILN 221136
TAFCVG
TAF
KCVG 221136Z 2212/2318 19006KT 4SM BR VCSH FEW008 OVC015
      TEMPO 2212/2214 2SM -DZ BR OVC008
     FM221400 18004KT 3SM BR OVC015
     FM221800 19005KT P6SM BKN025
     FM222000 19005KT P6SM BKN035
     FM230100 19004KT P6SM BKN025
     FM230600 20004KT 4SM BR OVC015
     FM231300 20007KT P6SM BKN025=

USA.gov is the U.S. government's official web portal to all federal, state and local government web resources and services.